KROA/ROA METAR and TAF weather

Enter ICAO airport designator
Station Type Date Time Source
KROA METAR 2019/11/14 03:54 UTC NOAA

KROA 140354Z 09004KT 10SM CLR M02/M12 A3039 RMK AO2 SLP302 T10221117


Station Type Date Time Source
KROA Decoded METAR 2019/11/14 03:54 UTC NOAA

ROANOKE REGIONAL AIRPORT, VA, United States (KROA) 37-19N 079-58W 362M
Nov 13, 2019 - 10:54 PM EST / 2019.11.14 0354 UTC
Wind: from the E (090 degrees) at 5 MPH (4 KT):0
Visibility: 10 mile(s):0
Sky conditions: clear
Temperature: 28.0 F (-2.2 C)
Windchill: 23 F (-5 C):1
Dew Point: 10.9 F (-11.7 C)
Relative Humidity: 48%
Pressure (altimeter): 30.39 in. Hg (1029 hPa)
ob: KROA 140354Z 09004KT 10SM CLR M02/M12 A3039 RMK AO2 SLP302 T10221117
cycle: 4

Station Type Date Time Source
KROA TAF 2019/11/13 18:28 UTC NOAA

TAF KROA 131726Z 1318/1418 14005KT P6SM SCT250
FM140000 VRB02KT P6SM SKC
FM141700 21007KT P6SM BKN180

Example: see airport list